sensor_id;sensor_type;location;lat;lon;timestamp;P1;durP1;ratioP1;P2;durP2;ratioP2
60370;SDS011;48550;40.588;49.684;2024-03-02T00:02:14;7.80;;;3.55;;
60370;SDS011;48550;40.588;49.684;2024-03-02T00:04:40;8.40;;;3.50;;
60370;SDS011;48550;40.588;49.684;2024-03-02T00:07:06;7.68;;;3.17;;
60370;SDS011;48550;40.588;49.684;2024-03-02T00:09:32;5.75;;;3.10;;
60370;SDS011;48550;40.588;49.684;2024-03-02T00:11:59;8.15;;;3.88;;
60370;SDS011;48550;40.588;49.684;2024-03-02T00:14:25;7.45;;;3.75;;
60370;SDS011;48550;40.588;49.684;2024-03-02T00:16:55;8.18;;;3.40;;
60370;SDS011;48550;40.588;49.684;2024-03-02T00:19:21;8.05;;;3.35;;
60370;SDS011;48550;40.588;49.684;2024-03-02T00:21:47;10.98;;;3.83;;
60370;SDS011;48550;40.588;49.684;2024-03-02T00:27:01;10.40;;;3.50;;
60370;SDS011;48550;40.588;49.684;2024-03-02T00:29:29;9.05;;;3.88;;
60370;SDS011;48550;40.588;49.684;2024-03-02T00:31:55;6.95;;;3.50;;
60370;SDS011;48550;40.588;49.684;2024-03-02T00:34:21;7.13;;;3.58;;
60370;SDS011;48550;40.588;49.684;2024-03-02T00:36:47;8.27;;;3.17;;
60370;SDS011;48550;40.588;49.684;2024-03-02T00:39:16;7.00;;;3.40;;
60370;SDS011;48550;40.588;49.684;2024-03-02T00:41:42;6.63;;;3.28;;
60370;SDS011;48550;40.588;49.684;2024-03-02T00:44:12;5.78;;;3.15;;
60370;SDS011;48550;40.588;49.684;2024-03-02T00:46:38;7.20;;;3.35;;
60370;SDS011;48550;40.588;49.684;2024-03-02T00:49:10;6.32;;;2.72;;
60370;SDS011;48550;40.588;49.684;2024-03-02T00:51:42;6.30;;;3.35;;
60370;SDS011;48550;40.588;49.684;2024-03-02T00:54:18;6.13;;;2.78;;
60370;SDS011;48550;40.588;49.684;2024-03-02T00:56:45;6.47;;;3.08;;
60370;SDS011;48550;40.588;49.684;2024-03-02T00:59:13;9.98;;;3.80;;
60370;SDS011;48550;40.588;49.684;2024-03-02T01:01:40;8.25;;;3.28;;
60370;SDS011;48550;40.588;49.684;2024-03-02T01:04:07;5.75;;;2.97;;
60370;SDS011;48550;40.588;49.684;2024-03-02T01:06:33;5.68;;;3.10;;
60370;SDS011;48550;40.588;49.684;2024-03-02T01:08:59;5.93;;;2.90;;
60370;SDS011;48550;40.588;49.684;2024-03-02T01:11:24;5.65;;;3.17;;
60370;SDS011;48550;40.588;49.684;2024-03-02T01:13:50;8.25;;;3.63;;
60370;SDS011;48550;40.588;49.684;2024-03-02T01:16:19;8.80;;;3.65;;
60370;SDS011;48550;40.588;49.684;2024-03-02T01:18:45;9.50;;;3.70;;
60370;SDS011;48550;40.588;49.684;2024-03-02T01:21:11;7.50;;;3.95;;
60370;SDS011;48550;40.588;49.684;2024-03-02T01:23:37;7.90;;;3.90;;
60370;SDS011;48550;40.588;49.684;2024-03-02T01:26:03;9.07;;;3.80;;
60370;SDS011;48550;40.588;49.684;2024-03-02T01:28:29;7.30;;;3.67;;
60370;SDS011;48550;40.588;49.684;2024-03-02T01:30:55;5.18;;;3.20;;
60370;SDS011;48550;40.588;49.684;2024-03-02T01:33:21;6.95;;;3.63;;
60370;SDS011;48550;40.588;49.684;2024-03-02T01:35:46;8.98;;;3.50;;
60370;SDS011;48550;40.588;49.684;2024-03-02T01:38:12;6.20;;;3.55;;
60370;SDS011;48550;40.588;49.684;2024-03-02T01:40:38;7.00;;;3.50;;
60370;SDS011;48550;40.588;49.684;2024-03-02T01:43:04;7.35;;;3.53;;
60370;SDS011;48550;40.588;49.684;2024-03-02T01:45:31;12.57;;;4.15;;
60370;SDS011;48550;40.588;49.684;2024-03-02T01:47:57;11.48;;;3.78;;
60370;SDS011;48550;40.588;49.684;2024-03-02T01:50:27;13.60;;;4.70;;
60370;SDS011;48550;40.588;49.684;2024-03-02T01:52:54;13.05;;;4.82;;
60370;SDS011;48550;40.588;49.684;2024-03-02T01:55:21;9.05;;;4.35;;
60370;SDS011;48550;40.588;49.684;2024-03-02T01:57:47;9.80;;;4.90;;
60370;SDS011;48550;40.588;49.684;2024-03-02T02:00:14;15.13;;;5.30;;
60370;SDS011;48550;40.588;49.684;2024-03-02T02:02:40;9.43;;;4.38;;
60370;SDS011;48550;40.588;49.684;2024-03-02T02:05:06;10.60;;;4.68;;
60370;SDS011;48550;40.588;49.684;2024-03-02T02:07:32;9.35;;;4.53;;
60370;SDS011;48550;40.588;49.684;2024-03-02T02:10:00;8.88;;;4.50;;
60370;SDS011;48550;40.588;49.684;2024-03-02T02:12:26;10.13;;;4.43;;
60370;SDS011;48550;40.588;49.684;2024-03-02T02:14:52;12.70;;;4.97;;
60370;SDS011;48550;40.588;49.684;2024-03-02T02:17:18;10.70;;;5.00;;
60370;SDS011;48550;40.588;49.684;2024-03-02T02:19:44;9.07;;;4.90;;
60370;SDS011;48550;40.588;49.684;2024-03-02T02:22:10;9.52;;;4.80;;
60370;SDS011;48550;40.588;49.684;2024-03-02T02:24:39;8.02;;;4.70;;
60370;SDS011;48550;40.588;49.684;2024-03-02T02:27:05;9.93;;;5.00;;
60370;SDS011;48550;40.588;49.684;2024-03-02T02:29:31;9.30;;;4.47;;
60370;SDS011;48550;40.588;49.684;2024-03-02T02:31:57;12.68;;;5.18;;
60370;SDS011;48550;40.588;49.684;2024-03-02T02:34:22;11.02;;;4.97;;
60370;SDS011;48550;40.588;49.684;2024-03-02T02:36:48;10.93;;;4.88;;
60370;SDS011;48550;40.588;49.684;2024-03-02T02:39:15;11.98;;;5.47;;
60370;SDS011;48550;40.588;49.684;2024-03-02T02:41:43;7.90;;;4.95;;
60370;SDS011;48550;40.588;49.684;2024-03-02T02:44:09;9.68;;;4.72;;
60370;SDS011;48550;40.588;49.684;2024-03-02T02:46:38;10.93;;;5.35;;
60370;SDS011;48550;40.588;49.684;2024-03-02T02:49:04;12.10;;;5.35;;
60370;SDS011;48550;40.588;49.684;2024-03-02T02:51:30;11.13;;;5.05;;
60370;SDS011;48550;40.588;49.684;2024-03-02T02:53:56;9.45;;;4.75;;
60370;SDS011;48550;40.588;49.684;2024-03-02T02:56:21;10.25;;;4.97;;
60370;SDS011;48550;40.588;49.684;2024-03-02T02:58:47;15.30;;;5.10;;
60370;SDS011;48550;40.588;49.684;2024-03-02T03:01:14;9.02;;;4.63;;
60370;SDS011;48550;40.588;49.684;2024-03-02T03:03:42;14.90;;;5.05;;
60370;SDS011;48550;40.588;49.684;2024-03-02T03:06:08;14.43;;;5.40;;
60370;SDS011;48550;40.588;49.684;2024-03-02T03:08:33;18.38;;;5.10;;
60370;SDS011;48550;40.588;49.684;2024-03-02T03:10:59;12.85;;;5.82;;
60370;SDS011;48550;40.588;49.684;2024-03-02T03:13:25;11.18;;;5.20;;
60370;SDS011;48550;40.588;49.684;2024-03-02T03:15:50;10.85;;;5.38;;
60370;SDS011;48550;40.588;49.684;2024-03-02T03:18:16;11.32;;;4.70;;
60370;SDS011;48550;40.588;49.684;2024-03-02T03:20:42;9.23;;;4.78;;
60370;SDS011;48550;40.588;49.684;2024-03-02T03:23:07;10.25;;;4.82;;
60370;SDS011;48550;40.588;49.684;2024-03-02T03:25:33;14.35;;;4.85;;
60370;SDS011;48550;40.588;49.684;2024-03-02T03:27:59;12.20;;;5.15;;
60370;SDS011;48550;40.588;49.684;2024-03-02T03:30:27;9.43;;;4.82;;
60370;SDS011;48550;40.588;49.684;2024-03-02T03:32:52;8.73;;;4.03;;
60370;SDS011;48550;40.588;49.684;2024-03-02T03:35:18;14.93;;;5.00;;
60370;SDS011;48550;40.588;49.684;2024-03-02T03:37:44;10.45;;;4.93;;
60370;SDS011;48550;40.588;49.684;2024-03-02T03:40:10;11.18;;;4.82;;
60370;SDS011;48550;40.588;49.684;2024-03-02T03:42:36;9.93;;;4.80;;
60370;SDS011;48550;40.588;49.684;2024-03-02T03:45:02;9.73;;;4.22;;
60370;SDS011;48550;40.588;49.684;2024-03-02T03:47:31;12.10;;;4.68;;
60370;SDS011;48550;40.588;49.684;2024-03-02T03:49:56;8.38;;;4.60;;
60370;SDS011;48550;40.588;49.684;2024-03-02T03:52:23;8.93;;;4.30;;
60370;SDS011;48550;40.588;49.684;2024-03-02T03:54:48;12.75;;;4.88;;
60370;SDS011;48550;40.588;49.684;2024-03-02T03:57:14;10.75;;;4.88;;
60370;SDS011;48550;40.588;49.684;2024-03-02T03:59:40;8.32;;;4.80;;
60370;SDS011;48550;40.588;49.684;2024-03-02T04:02:05;13.82;;;4.57;;
60370;SDS011;48550;40.588;49.684;2024-03-02T04:04:32;15.98;;;4.50;;
60370;SDS011;48550;40.588;49.684;2024-03-02T04:06:58;12.43;;;4.03;;
60370;SDS011;48550;40.588;49.684;2024-03-02T04:09:24;12.13;;;3.90;;
60370;SDS011;48550;40.588;49.684;2024-03-02T04:11:50;8.85;;;3.63;;
60370;SDS011;48550;40.588;49.684;2024-03-02T04:14:16;15.10;;;5.18;;
60370;SDS011;48550;40.588;49.684;2024-03-02T04:16:43;14.27;;;4.43;;
60370;SDS011;48550;40.588;49.684;2024-03-02T04:19:08;15.80;;;5.25;;
60370;SDS011;48550;40.588;49.684;2024-03-02T04:21:34;25.33;;;8.00;;
60370;SDS011;48550;40.588;49.684;2024-03-02T04:24:00;15.75;;;6.13;;
60370;SDS011;48550;40.588;49.684;2024-03-02T04:26:25;10.48;;;5.03;;
60370;SDS011;48550;40.588;49.684;2024-03-02T04:28:52;14.38;;;5.90;;
60370;SDS011;48550;40.588;49.684;2024-03-02T04:31:19;12.18;;;4.78;;
60370;SDS011;48550;40.588;49.684;2024-03-02T04:33:45;14.80;;;5.95;;
60370;SDS011;48550;40.588;49.684;2024-03-02T04:36:10;26.10;;;7.07;;
60370;SDS011;48550;40.588;49.684;2024-03-02T04:38:37;16.15;;;6.10;;
60370;SDS011;48550;40.588;49.684;2024-03-02T04:41:04;17.65;;;6.47;;
60370;SDS011;48550;40.588;49.684;2024-03-02T04:43:31;18.98;;;7.38;;
60370;SDS011;48550;40.588;49.684;2024-03-02T04:46:00;16.48;;;6.55;;
60370;SDS011;48550;40.588;49.684;2024-03-02T04:48:26;14.40;;;6.03;;
60370;SDS011;48550;40.588;49.684;2024-03-02T04:50:52;10.98;;;4.97;;
60370;SDS011;48550;40.588;49.684;2024-03-02T04:53:18;11.43;;;4.80;;
60370;SDS011;48550;40.588;49.684;2024-03-02T04:55:43;10.55;;;4.57;;
60370;SDS011;48550;40.588;49.684;2024-03-02T04:58:09;14.35;;;3.60;;
60370;SDS011;48550;40.588;49.684;2024-03-02T05:00:35;9.38;;;4.07;;
60370;SDS011;48550;40.588;49.684;2024-03-02T05:03:01;9.25;;;4.35;;
60370;SDS011;48550;40.588;49.684;2024-03-02T05:05:27;8.75;;;3.80;;
60370;SDS011;48550;40.588;49.684;2024-03-02T05:07:53;13.32;;;4.97;;
60370;SDS011;48550;40.588;49.684;2024-03-02T05:10:19;9.43;;;4.05;;
60370;SDS011;48550;40.588;49.684;2024-03-02T05:12:45;7.60;;;3.97;;
60370;SDS011;48550;40.588;49.684;2024-03-02T05:15:13;9.73;;;3.97;;
60370;SDS011;48550;40.588;49.684;2024-03-02T05:17:39;9.90;;;3.67;;
60370;SDS011;48550;40.588;49.684;2024-03-02T05:20:06;8.05;;;4.10;;
60370;SDS011;48550;40.588;49.684;2024-03-02T05:22:35;9.13;;;4.50;;
60370;SDS011;48550;40.588;49.684;2024-03-02T05:25:05;18.27;;;7.55;;
60370;SDS011;48550;40.588;49.684;2024-03-02T05:27:31;8.10;;;3.53;;
60370;SDS011;48550;40.588;49.684;2024-03-02T05:29:58;7.60;;;4.32;;
60370;SDS011;48550;40.588;49.684;2024-03-02T05:32:26;12.55;;;6.40;;
60370;SDS011;48550;40.588;49.684;2024-03-02T05:34:52;12.73;;;5.35;;
60370;SDS011;48550;40.588;49.684;2024-03-02T05:37:18;9.45;;;4.00;;
60370;SDS011;48550;40.588;49.684;2024-03-02T05:39:45;8.43;;;3.80;;
60370;SDS011;48550;40.588;49.684;2024-03-02T05:42:11;15.15;;;5.07;;
60370;SDS011;48550;40.588;49.684;2024-03-02T05:44:37;14.20;;;4.85;;
60370;SDS011;48550;40.588;49.684;2024-03-02T05:47:02;17.23;;;6.07;;
60370;SDS011;48550;40.588;49.684;2024-03-02T05:49:29;9.65;;;3.78;;
60370;SDS011;48550;40.588;49.684;2024-03-02T05:51:55;14.05;;;5.60;;
60370;SDS011;48550;40.588;49.684;2024-03-02T05:54:21;15.75;;;3.58;;
60370;SDS011;48550;40.588;49.684;2024-03-02T05:56:47;8.98;;;3.38;;
60370;SDS011;48550;40.588;49.684;2024-03-02T05:59:14;7.25;;;3.22;;
60370;SDS011;48550;40.588;49.684;2024-03-02T06:01:47;9.55;;;4.15;;
60370;SDS011;48550;40.588;49.684;2024-03-02T06:04:15;9.45;;;3.45;;
60370;SDS011;48550;40.588;49.684;2024-03-02T06:06:42;7.35;;;3.80;;
60370;SDS011;48550;40.588;49.684;2024-03-02T06:09:08;9.80;;;3.78;;
60370;SDS011;48550;40.588;49.684;2024-03-02T06:11:34;7.18;;;3.30;;
60370;SDS011;48550;40.588;49.684;2024-03-02T06:14:01;8.90;;;3.78;;
60370;SDS011;48550;40.588;49.684;2024-03-02T06:16:28;13.05;;;4.93;;
60370;SDS011;48550;40.588;49.684;2024-03-02T06:18:55;14.40;;;7.03;;
60370;SDS011;48550;40.588;49.684;2024-03-02T06:21:25;13.23;;;4.82;;
60370;SDS011;48550;40.588;49.684;2024-03-02T06:23:54;8.00;;;4.20;;
60370;SDS011;48550;40.588;49.684;2024-03-02T06:26:20;11.63;;;4.05;;
60370;SDS011;48550;40.588;49.684;2024-03-02T06:28:46;8.10;;;4.35;;
60370;SDS011;48550;40.588;49.684;2024-03-02T06:31:12;10.00;;;4.97;;
60370;SDS011;48550;40.588;49.684;2024-03-02T06:33:38;9.23;;;3.90;;
60370;SDS011;48550;40.588;49.684;2024-03-02T06:36:04;10.10;;;3.40;;
60370;SDS011;48550;40.588;49.684;2024-03-02T06:38:30;8.52;;;3.25;;
60370;SDS011;48550;40.588;49.684;2024-03-02T06:40:59;14.27;;;5.97;;
60370;SDS011;48550;40.588;49.684;2024-03-02T06:43:24;8.82;;;3.97;;
60370;SDS011;48550;40.588;49.684;2024-03-02T06:45:50;9.93;;;3.08;;
60370;SDS011;48550;40.588;49.684;2024-03-02T06:48:17;9.50;;;3.47;;
60370;SDS011;48550;40.588;49.684;2024-03-02T06:50:48;13.50;;;3.50;;
60370;SDS011;48550;40.588;49.684;2024-03-02T06:53:14;6.57;;;3.08;;
60370;SDS011;48550;40.588;49.684;2024-03-02T06:55:43;14.50;;;3.97;;
60370;SDS011;48550;40.588;49.684;2024-03-02T06:58:10;9.55;;;3.60;;
60370;SDS011;48550;40.588;49.684;2024-03-02T07:00:42;7.32;;;2.92;;
60370;SDS011;48550;40.588;49.684;2024-03-02T07:03:09;6.45;;;2.90;;
60370;SDS011;48550;40.588;49.684;2024-03-02T07:05:35;12.20;;;3.60;;
60370;SDS011;48550;40.588;49.684;2024-03-02T07:08:01;11.23;;;4.00;;
60370;SDS011;48550;40.588;49.684;2024-03-02T07:10:27;8.80;;;3.40;;
60370;SDS011;48550;40.588;49.684;2024-03-02T07:12:53;12.95;;;3.75;;
60370;SDS011;48550;40.588;49.684;2024-03-02T07:15:19;8.38;;;3.60;;
60370;SDS011;48550;40.588;49.684;2024-03-02T07:18:03;12.32;;;4.15;;
60370;SDS011;48550;40.588;49.684;2024-03-02T07:20:29;8.90;;;3.50;;
60370;SDS011;48550;40.588;49.684;2024-03-02T07:22:55;12.75;;;3.88;;
60370;SDS011;48550;40.588;49.684;2024-03-02T07:25:21;9.48;;;3.90;;
60370;SDS011;48550;40.588;49.684;2024-03-02T07:27:46;7.05;;;3.20;;
60370;SDS011;48550;40.588;49.684;2024-03-02T07:30:15;10.85;;;3.72;;
60370;SDS011;48550;40.588;49.684;2024-03-02T07:32:43;10.65;;;3.20;;
60370;SDS011;48550;40.588;49.684;2024-03-02T07:35:11;8.52;;;3.53;;
60370;SDS011;48550;40.588;49.684;2024-03-02T07:37:42;6.43;;;3.05;;
60370;SDS011;48550;40.588;49.684;2024-03-02T07:40:09;6.47;;;2.90;;
60370;SDS011;48550;40.588;49.684;2024-03-02T07:42:38;11.13;;;3.53;;
60370;SDS011;48550;40.588;49.684;2024-03-02T07:45:05;13.18;;;3.17;;
60370;SDS011;48550;40.588;49.684;2024-03-02T07:47:32;7.55;;;2.55;;
60370;SDS011;48550;40.588;49.684;2024-03-02T07:50:01;8.35;;;3.25;;
60370;SDS011;48550;40.588;49.684;2024-03-02T07:52:27;10.60;;;3.70;;
60370;SDS011;48550;40.588;49.684;2024-03-02T07:54:54;8.13;;;3.33;;
60370;SDS011;48550;40.588;49.684;2024-03-02T07:57:20;4.60;;;2.47;;
60370;SDS011;48550;40.588;49.684;2024-03-02T07:59:46;7.68;;;3.60;;
60370;SDS011;48550;40.588;49.684;2024-03-02T08:02:12;11.45;;;3.55;;
60370;SDS011;48550;40.588;49.684;2024-03-02T08:04:38;10.60;;;3.95;;
60370;SDS011;48550;40.588;49.684;2024-03-02T08:07:04;11.23;;;3.45;;
60370;SDS011;48550;40.588;49.684;2024-03-02T08:09:30;7.15;;;2.95;;
60370;SDS011;48550;40.588;49.684;2024-03-02T08:11:55;7.80;;;3.25;;
60370;SDS011;48550;40.588;49.684;2024-03-02T08:14:22;10.95;;;3.20;;
60370;SDS011;48550;40.588;49.684;2024-03-02T08:16:48;8.95;;;3.05;;
60370;SDS011;48550;40.588;49.684;2024-03-02T08:19:14;6.95;;;3.35;;
60370;SDS011;48550;40.588;49.684;2024-03-02T08:21:40;9.52;;;3.50;;
60370;SDS011;48550;40.588;49.684;2024-03-02T08:24:06;15.85;;;3.75;;
60370;SDS011;48550;40.588;49.684;2024-03-02T08:26:32;11.15;;;3.40;;
60370;SDS011;48550;40.588;49.684;2024-03-02T08:28:58;8.30;;;2.97;;
60370;SDS011;48550;40.588;49.684;2024-03-02T08:31:26;7.07;;;3.17;;
60370;SDS011;48550;40.588;49.684;2024-03-02T08:33:52;8.65;;;3.05;;
60370;SDS011;48550;40.588;49.684;2024-03-02T08:36:18;6.72;;;3.47;;
60370;SDS011;48550;40.588;49.684;2024-03-02T08:38:44;9.15;;;3.30;;
60370;SDS011;48550;40.588;49.684;2024-03-02T08:41:11;8.45;;;3.40;;
60370;SDS011;48550;40.588;49.684;2024-03-02T08:43:40;7.25;;;3.03;;
60370;SDS011;48550;40.588;49.684;2024-03-02T08:46:07;8.77;;;3.88;;
60370;SDS011;48550;40.588;49.684;2024-03-02T08:48:34;4.78;;;2.58;;
60370;SDS011;48550;40.588;49.684;2024-03-02T08:50:59;8.77;;;3.00;;
60370;SDS011;48550;40.588;49.684;2024-03-02T08:53:25;11.32;;;3.05;;
60370;SDS011;48550;40.588;49.684;2024-03-02T08:55:51;10.65;;;3.28;;
60370;SDS011;48550;40.588;49.684;2024-03-02T08:58:17;10.27;;;3.13;;
60370;SDS011;48550;40.588;49.684;2024-03-02T09:00:43;9.98;;;3.63;;
60370;SDS011;48550;40.588;49.684;2024-03-02T09:03:09;6.38;;;2.72;;
60370;SDS011;48550;40.588;49.684;2024-03-02T09:05:35;8.57;;;3.63;;
60370;SDS011;48550;40.588;49.684;2024-03-02T09:08:01;8.02;;;3.22;;
60370;SDS011;48550;40.588;49.684;2024-03-02T09:10:28;14.85;;;3.35;;
60370;SDS011;48550;40.588;49.684;2024-03-02T09:12:54;7.68;;;2.95;;
60370;SDS011;48550;40.588;49.684;2024-03-02T09:15:20;6.78;;;3.20;;
60370;SDS011;48550;40.588;49.684;2024-03-02T09:17:46;5.20;;;2.75;;
60370;SDS011;48550;40.588;49.684;2024-03-02T09:20:11;6.45;;;2.90;;
60370;SDS011;48550;40.588;49.684;2024-03-02T09:22:39;9.95;;;3.13;;
60370;SDS011;48550;40.588;49.684;2024-03-02T09:25:04;9.43;;;4.28;;
60370;SDS011;48550;40.588;49.684;2024-03-02T09:27:32;9.63;;;3.13;;
60370;SDS011;48550;40.588;49.684;2024-03-02T09:29:58;7.43;;;3.30;;
60370;SDS011;48550;40.588;49.684;2024-03-02T09:32:23;10.05;;;3.28;;
60370;SDS011;48550;40.588;49.684;2024-03-02T09:34:49;10.43;;;2.90;;
60370;SDS011;48550;40.588;49.684;2024-03-02T09:37:15;8.05;;;3.38;;
60370;SDS011;48550;40.588;49.684;2024-03-02T09:39:43;9.93;;;3.30;;
60370;SDS011;48550;40.588;49.684;2024-03-02T09:42:09;12.43;;;4.57;;
60370;SDS011;48550;40.588;49.684;2024-03-02T09:44:35;8.05;;;3.83;;
60370;SDS011;48550;40.588;49.684;2024-03-02T09:47:02;10.15;;;3.20;;
60370;SDS011;48550;40.588;49.684;2024-03-02T09:49:27;13.63;;;3.22;;
60370;SDS011;48550;40.588;49.684;2024-03-02T09:51:53;7.28;;;3.10;;
60370;SDS011;48550;40.588;49.684;2024-03-02T09:54:19;9.07;;;3.00;;
60370;SDS011;48550;40.588;49.684;2024-03-02T09:56:46;8.18;;;3.35;;
60370;SDS011;48550;40.588;49.684;2024-03-02T09:59:11;12.63;;;3.13;;
60370;SDS011;48550;40.588;49.684;2024-03-02T10:01:55;7.72;;;3.45;;
60370;SDS011;48550;40.588;49.684;2024-03-02T10:04:28;8.70;;;3.30;;
60370;SDS011;48550;40.588;49.684;2024-03-02T10:07:10;11.88;;;3.58;;
60370;SDS011;48550;40.588;49.684;2024-03-02T10:09:40;6.43;;;3.25;;
60370;SDS011;48550;40.588;49.684;2024-03-02T10:12:07;5.45;;;2.90;;
60370;SDS011;48550;40.588;49.684;2024-03-02T10:14:37;9.73;;;3.45;;
60370;SDS011;48550;40.588;49.684;2024-03-02T10:17:04;9.40;;;3.17;;
60370;SDS011;48550;40.588;49.684;2024-03-02T10:19:31;8.52;;;3.58;;
60370;SDS011;48550;40.588;49.684;2024-03-02T10:22:00;6.90;;;3.22;;
60370;SDS011;48550;40.588;49.684;2024-03-02T10:24:28;17.35;;;4.53;;
60370;SDS011;48550;40.588;49.684;2024-03-02T10:27:01;7.93;;;3.40;;
60370;SDS011;48550;40.588;49.684;2024-03-02T10:29:29;8.43;;;2.92;;
60370;SDS011;48550;40.588;49.684;2024-03-02T10:31:55;12.25;;;3.03;;
60370;SDS011;48550;40.588;49.684;2024-03-02T10:34:21;9.13;;;3.55;;
60370;SDS011;48550;40.588;49.684;2024-03-02T10:36:47;7.03;;;3.28;;
60370;SDS011;48550;40.588;49.684;2024-03-02T10:39:13;7.00;;;3.47;;
60370;SDS011;48550;40.588;49.684;2024-03-02T10:41:40;12.65;;;4.35;;
60370;SDS011;48550;40.588;49.684;2024-03-02T10:44:06;8.07;;;3.70;;
60370;SDS011;48550;40.588;49.684;2024-03-02T10:46:37;7.82;;;4.40;;
60370;SDS011;48550;40.588;49.684;2024-03-02T10:49:04;7.28;;;3.00;;
60370;SDS011;48550;40.588;49.684;2024-03-02T10:51:31;17.17;;;3.63;;
60370;SDS011;48550;40.588;49.684;2024-03-02T10:53:58;15.90;;;3.95;;
60370;SDS011;48550;40.588;49.684;2024-03-02T10:56:44;11.02;;;3.50;;
60370;SDS011;48550;40.588;49.684;2024-03-02T11:01:56;9.95;;;3.40;;
60370;SDS011;48550;40.588;49.684;2024-03-02T11:04:27;7.20;;;3.30;;
60370;SDS011;48550;40.588;49.684;2024-03-02T11:09:32;8.35;;;3.20;;
60370;SDS011;48550;40.588;49.684;2024-03-02T11:12:03;12.35;;;3.25;;
60370;SDS011;48550;40.588;49.684;2024-03-02T11:14:30;8.18;;;3.15;;
60370;SDS011;48550;40.588;49.684;2024-03-02T11:17:00;8.95;;;3.22;;
60370;SDS011;48550;40.588;49.684;2024-03-02T11:19:28;10.07;;;5.15;;
60370;SDS011;48550;40.588;49.684;2024-03-02T11:21:56;8.40;;;3.40;;
60370;SDS011;48550;40.588;49.684;2024-03-02T11:26:53;7.45;;;3.72;;
60370;SDS011;48550;40.588;49.684;2024-03-02T11:29:52;9.23;;;3.35;;
60370;SDS011;48550;40.588;49.684;2024-03-02T11:32:19;7.00;;;3.63;;
60370;SDS011;48550;40.588;49.684;2024-03-02T11:34:47;8.73;;;3.58;;
60370;SDS011;48550;40.588;49.684;2024-03-02T11:37:17;10.98;;;3.63;;
60370;SDS011;48550;40.588;49.684;2024-03-02T11:39:46;14.00;;;3.35;;
60370;SDS011;48550;40.588;49.684;2024-03-02T11:42:16;7.53;;;2.97;;
60370;SDS011;48550;40.588;49.684;2024-03-02T11:44:43;15.45;;;4.85;;
60370;SDS011;48550;40.588;49.684;2024-03-02T11:47:12;11.10;;;3.60;;
60370;SDS011;48550;40.588;49.684;2024-03-02T11:49:41;9.45;;;4.13;;
60370;SDS011;48550;40.588;49.684;2024-03-02T11:52:10;11.55;;;3.42;;
60370;SDS011;48550;40.588;49.684;2024-03-02T11:54:37;12.82;;;3.40;;
60370;SDS011;48550;40.588;49.684;2024-03-02T11:57:11;10.02;;;3.63;;
60370;SDS011;48550;40.588;49.684;2024-03-02T11:59:39;8.13;;;4.10;;
60370;SDS011;48550;40.588;49.684;2024-03-02T12:02:06;7.50;;;3.70;;
60370;SDS011;48550;40.588;49.684;2024-03-02T12:04:32;8.35;;;3.45;;
60370;SDS011;48550;40.588;49.684;2024-03-02T12:06:59;9.10;;;3.75;;
60370;SDS011;48550;40.588;49.684;2024-03-02T12:09:26;9.55;;;3.70;;
60370;SDS011;48550;40.588;49.684;2024-03-02T12:14:31;11.25;;;4.40;;
60370;SDS011;48550;40.588;49.684;2024-03-02T12:16:58;9.60;;;4.47;;
60370;SDS011;48550;40.588;49.684;2024-03-02T12:19:24;9.65;;;4.05;;
60370;SDS011;48550;40.588;49.684;2024-03-02T12:21:51;6.93;;;3.83;;
60370;SDS011;48550;40.588;49.684;2024-03-02T12:24:17;6.45;;;3.22;;
60370;SDS011;48550;40.588;49.684;2024-03-02T12:26:43;11.20;;;3.83;;
60370;SDS011;48550;40.588;49.684;2024-03-02T12:29:10;6.45;;;3.53;;
60370;SDS011;48550;40.588;49.684;2024-03-02T12:31:36;11.48;;;3.40;;
60370;SDS011;48550;40.588;49.684;2024-03-02T12:34:02;8.23;;;3.05;;
60370;SDS011;48550;40.588;49.684;2024-03-02T12:36:29;17.23;;;3.90;;
60370;SDS011;48550;40.588;49.684;2024-03-02T12:38:54;8.20;;;3.20;;
60370;SDS011;48550;40.588;49.684;2024-03-02T12:41:20;6.15;;;3.15;;
60370;SDS011;48550;40.588;49.684;2024-03-02T12:43:46;8.25;;;3.08;;
60370;SDS011;48550;40.588;49.684;2024-03-02T12:46:13;7.72;;;3.20;;
60370;SDS011;48550;40.588;49.684;2024-03-02T12:48:39;8.00;;;3.45;;
60370;SDS011;48550;40.588;49.684;2024-03-02T12:51:08;10.35;;;3.38;;
60370;SDS011;48550;40.588;49.684;2024-03-02T12:53:34;7.43;;;3.08;;
60370;SDS011;48550;40.588;49.684;2024-03-02T12:55:59;9.25;;;3.25;;
60370;SDS011;48550;40.588;49.684;2024-03-02T12:58:25;7.13;;;3.22;;
60370;SDS011;48550;40.588;49.684;2024-03-02T13:01:05;9.05;;;3.60;;
60370;SDS011;48550;40.588;49.684;2024-03-02T13:03:34;12.82;;;4.40;;
60370;SDS011;48550;40.588;49.684;2024-03-02T13:06:01;11.48;;;3.88;;
60370;SDS011;48550;40.588;49.684;2024-03-02T13:08:27;11.60;;;3.55;;
60370;SDS011;48550;40.588;49.684;2024-03-02T13:10:53;8.88;;;3.72;;
60370;SDS011;48550;40.588;49.684;2024-03-02T13:13:19;9.10;;;4.00;;
60370;SDS011;48550;40.588;49.684;2024-03-02T13:15:45;7.85;;;3.55;;
60370;SDS011;48550;40.588;49.684;2024-03-02T13:18:11;9.27;;;3.97;;
60370;SDS011;48550;40.588;49.684;2024-03-02T13:20:37;9.48;;;4.15;;
60370;SDS011;48550;40.588;49.684;2024-03-02T13:23:04;11.70;;;6.95;;
60370;SDS011;48550;40.588;49.684;2024-03-02T13:25:29;9.98;;;3.08;;
60370;SDS011;48550;40.588;49.684;2024-03-02T13:27:56;10.75;;;3.33;;
60370;SDS011;48550;40.588;49.684;2024-03-02T13:30:23;8.68;;;3.20;;
60370;SDS011;48550;40.588;49.684;2024-03-02T13:32:49;8.35;;;3.33;;
60370;SDS011;48550;40.588;49.684;2024-03-02T13:35:14;8.82;;;3.88;;
60370;SDS011;48550;40.588;49.684;2024-03-02T13:37:40;10.00;;;3.80;;
60370;SDS011;48550;40.588;49.684;2024-03-02T13:40:06;10.30;;;3.90;;
60370;SDS011;48550;40.588;49.684;2024-03-02T13:42:38;13.25;;;4.88;;
60370;SDS011;48550;40.588;49.684;2024-03-02T13:45:04;7.35;;;3.35;;
60370;SDS011;48550;40.588;49.684;2024-03-02T13:47:31;9.13;;;3.35;;
60370;SDS011;48550;40.588;49.684;2024-03-02T13:49:57;7.53;;;3.42;;
60370;SDS011;48550;40.588;49.684;2024-03-02T13:52:23;11.30;;;3.83;;
60370;SDS011;48550;40.588;49.684;2024-03-02T13:54:51;7.00;;;3.75;;
60370;SDS011;48550;40.588;49.684;2024-03-02T13:57:17;8.93;;;3.95;;
60370;SDS011;48550;40.588;49.684;2024-03-02T13:59:45;8.60;;;3.67;;
60370;SDS011;48550;40.588;49.684;2024-03-02T14:02:11;8.93;;;4.20;;
60370;SDS011;48550;40.588;49.684;2024-03-02T14:04:37;11.15;;;4.30;;
60370;SDS011;48550;40.588;49.684;2024-03-02T14:07:04;12.20;;;4.60;;
60370;SDS011;48550;40.588;49.684;2024-03-02T14:09:33;10.27;;;4.18;;
60370;SDS011;48550;40.588;49.684;2024-03-02T14:11:59;10.05;;;3.92;;
60370;SDS011;48550;40.588;49.684;2024-03-02T14:14:27;7.15;;;4.00;;
60370;SDS011;48550;40.588;49.684;2024-03-02T14:16:54;8.77;;;3.97;;
60370;SDS011;48550;40.588;49.684;2024-03-02T14:19:31;8.55;;;3.47;;
60370;SDS011;48550;40.588;49.684;2024-03-02T14:21:57;11.43;;;4.57;;
60370;SDS011;48550;40.588;49.684;2024-03-02T14:24:23;9.10;;;3.88;;
60370;SDS011;48550;40.588;49.684;2024-03-02T14:26:51;11.48;;;3.90;;
60370;SDS011;48550;40.588;49.684;2024-03-02T14:29:18;13.15;;;4.22;;
60370;SDS011;48550;40.588;49.684;2024-03-02T14:31:43;7.07;;;4.03;;
60370;SDS011;48550;40.588;49.684;2024-03-02T14:34:13;8.32;;;3.50;;
60370;SDS011;48550;40.588;49.684;2024-03-02T14:36:42;5.90;;;3.63;;
60370;SDS011;48550;40.588;49.684;2024-03-02T14:39:10;10.23;;;4.88;;
60370;SDS011;48550;40.588;49.684;2024-03-02T14:41:37;8.80;;;3.80;;